Time;durP1;ratioP1;P1;durP2;ratioP2;P2;SDS_P1;SDS_P2;PMS_P1;PMS_P2;Temp;Humidity;BMP_temperature;BMP_pressure;BME280_temperature;BME280_humidity;BME280_pressure;Samples;Min_cycle;Max_cycle;Signal;HPM_P1;HPM_P2
2023/04/17 00:01:39;;;;;;;12.23;7.57;;;;;;;;;;4996381;28;20073;-77
2023/04/17 00:04:09;;;;;;;14.25;8.18;;;;;;;;;;4981885;28;20043;-78
2023/04/17 00:06:38;;;;;;;12.75;7.75;;;;;;;;;;4995600;28;20048;-78
2023/04/17 00:09:03;;;;;;;12.70;7.65;;;;;;;;;;4996954;28;20481;-78
2023/04/17 00:11:29;;;;;;;12.35;7.97;;;;;;;;;;4998673;28;20042;-78
2023/04/17 00:13:54;;;;;;;12.50;7.75;;;;;;;;;;4988174;28;20509;-77
2023/04/17 00:16:20;;;;;;;12.77;7.35;;;;;;;;;;4994725;28;20049;-78
2023/04/17 00:18:45;;;;;;;12.70;7.32;;;;;;;;;;4994207;28;20035;-77
2023/04/17 00:21:11;;;;;;;12.43;7.55;;;;;;;;;;4997377;28;20053;-78
2023/04/17 00:23:36;;;;;;;14.23;7.60;;;;;;;;;;4996521;28;20046;-78
2023/04/17 00:26:02;;;;;;;12.45;7.28;;;;;;;;;;4999451;28;20029;-77
2023/04/17 00:28:27;;;;;;;12.35;7.45;;;;;;;;;;4996283;28;20038;-78
2023/04/17 00:30:52;;;;;;;14.35;7.80;;;;;;;;;;4983066;28;20057;-78
2023/04/17 00:33:18;;;;;;;14.15;7.20;;;;;;;;;;4987813;28;20183;-77
2023/04/17 00:35:43;;;;;;;14.40;8.18;;;;;;;;;;4984850;28;20038;-77
2023/04/17 00:38:09;;;;;;;12.70;7.63;;;;;;;;;;4995680;28;20033;-77
2023/04/17 00:40:34;;;;;;;13.75;7.88;;;;;;;;;;4995525;28;20038;-78
2023/04/17 00:43:01;;;;;;;13.88;7.65;;;;;;;;;;4998627;28;20029;-77
2023/04/17 00:45:26;;;;;;;12.68;8.20;;;;;;;;;;4989372;28;20037;-78
2023/04/17 00:47:52;;;;;;;14.60;8.30;;;;;;;;;;5012308;28;20037;-77
2023/04/17 00:50:17;;;;;;;15.15;8.23;;;;;;;;;;4997446;28;20058;-76
2023/04/17 00:52:44;;;;;;;15.25;8.45;;;;;;;;;;4986776;28;20100;-78
2023/04/17 00:55:09;;;;;;;13.68;8.00;;;;;;;;;;4986820;28;20037;-77
2023/04/17 00:57:35;;;;;;;15.38;8.07;;;;;;;;;;4995768;28;20362;-77
2023/04/17 01:00:01;;;;;;;14.13;7.70;;;;;;;;;;4994338;28;20092;-77
2023/04/17 01:02:26;;;;;;;13.15;7.80;;;;;;;;;;4997787;28;20062;-76
2023/04/17 01:04:52;;;;;;;12.55;7.53;;;;;;;;;;5005342;28;20047;-76
2023/04/17 01:07:17;;;;;;;16.30;8.55;;;;;;;;;;4981147;28;20498;-76
2023/04/17 01:09:43;;;;;;;14.93;8.55;;;;;;;;;;4996743;28;20065;-76
2023/04/17 01:12:23;;;;;;;14.85;8.25;;;;;;;;;;4996589;28;20417;-76
2023/04/17 01:14:50;;;;;;;13.80;8.30;;;;;;;;;;5006349;28;20064;-76
2023/04/17 01:17:17;;;;;;;16.25;8.75;;;;;;;;;;4996104;28;20384;-77
2023/04/17 01:19:43;;;;;;;14.00;8.18;;;;;;;;;;4997310;28;20108;-76
2023/04/17 01:22:08;;;;;;;14.32;7.65;;;;;;;;;;4995444;28;20033;-77
2023/04/17 01:24:34;;;;;;;16.00;8.23;;;;;;;;;;4997715;28;20054;-76
2023/04/17 01:26:59;;;;;;;12.90;8.27;;;;;;;;;;4988837;28;20055;-76
2023/04/17 01:29:25;;;;;;;13.75;8.13;;;;;;;;;;4996891;28;20558;-77
2023/04/17 01:31:50;;;;;;;13.40;8.43;;;;;;;;;;5009522;28;20061;-79
2023/04/17 01:34:15;;;;;;;13.68;7.32;;;;;;;;;;4995900;28;20033;-78
2023/04/17 01:36:41;;;;;;;14.07;8.23;;;;;;;;;;5001972;28;20104;-78
2023/04/17 01:39:07;;;;;;;12.77;7.60;;;;;;;;;;5012222;28;20029;-78
2023/04/17 01:41:32;;;;;;;14.77;8.57;;;;;;;;;;4978702;28;20037;-75
2023/04/17 01:43:57;;;;;;;14.07;7.93;;;;;;;;;;5005699;28;20033;-76
2023/04/17 01:46:23;;;;;;;16.65;8.50;;;;;;;;;;4995028;28;20042;-77
2023/04/17 01:48:48;;;;;;;13.75;8.00;;;;;;;;;;4983394;28;20138;-77
2023/04/17 01:51:14;;;;;;;13.25;7.25;;;;;;;;;;4995444;28;20037;-76
2023/04/17 01:53:40;;;;;;;15.07;7.53;;;;;;;;;;4988406;28;20057;-77
2023/04/17 01:56:06;;;;;;;12.35;7.82;;;;;;;;;;4988173;28;20044;-77
2023/04/17 01:58:31;;;;;;;14.15;7.63;;;;;;;;;;4999428;28;20041;-77
2023/04/17 02:00:56;;;;;;;13.57;7.65;;;;;;;;;;4995091;28;20034;-77
2023/04/17 02:03:25;;;;;;;13.63;7.63;;;;;;;;;;5013483;28;20066;-78
2023/04/17 02:05:52;;;;;;;12.98;7.35;;;;;;;;;;4996214;28;20568;-77
2023/04/17 02:08:17;;;;;;;12.88;8.30;;;;;;;;;;4980074;28;20045;-77
2023/04/17 02:10:43;;;;;;;14.90;8.00;;;;;;;;;;5014034;28;20038;-77
2023/04/17 02:13:09;;;;;;;14.30;8.43;;;;;;;;;;5011319;28;20037;-77
2023/04/17 02:15:35;;;;;;;16.17;8.43;;;;;;;;;;4993872;28;20666;-77
2023/04/17 02:18:02;;;;;;;12.90;8.07;;;;;;;;;;4983578;28;20061;-77
2023/04/17 02:20:27;;;;;;;14.15;8.73;;;;;;;;;;4993174;28;20529;-76
2023/04/17 02:22:53;;;;;;;14.43;8.40;;;;;;;;;;5012519;28;20056;-76
2023/04/17 02:25:18;;;;;;;13.48;7.97;;;;;;;;;;5012421;28;20137;-77
2023/04/17 02:27:44;;;;;;;14.50;8.23;;;;;;;;;;4983152;28;20049;-77
2023/04/17 02:30:10;;;;;;;14.60;8.57;;;;;;;;;;5004984;28;20044;-77
2023/04/17 02:32:35;;;;;;;13.57;8.55;;;;;;;;;;5011464;28;20052;-76
2023/04/17 02:35:00;;;;;;;15.15;8.45;;;;;;;;;;4995215;28;20029;-76
2023/04/17 02:37:26;;;;;;;15.15;8.55;;;;;;;;;;4995308;28;20030;-77
2023/04/17 02:39:52;;;;;;;14.77;8.07;;;;;;;;;;4983391;28;20054;-79
2023/04/17 02:42:17;;;;;;;13.23;8.13;;;;;;;;;;4994424;28;20040;-76
2023/04/17 02:44:45;;;;;;;18.48;8.68;;;;;;;;;;5012899;28;20034;-76
2023/04/17 02:47:10;;;;;;;14.05;8.52;;;;;;;;;;4993279;28;20478;-75
2023/04/17 02:49:36;;;;;;;15.80;8.45;;;;;;;;;;4993006;28;20044;-78
2023/04/17 02:52:01;;;;;;;20.35;8.73;;;;;;;;;;4989304;28;20034;-78
2023/04/17 02:54:27;;;;;;;15.07;8.68;;;;;;;;;;4995256;28;20093;-77
2023/04/17 02:56:52;;;;;;;16.27;8.63;;;;;;;;;;5013097;28;20049;-78
2023/04/17 02:59:18;;;;;;;15.25;8.57;;;;;;;;;;4998935;28;20050;-78
2023/04/17 03:01:44;;;;;;;14.52;8.63;;;;;;;;;;4992924;28;20036;-78
2023/04/17 03:04:10;;;;;;;15.63;8.15;;;;;;;;;;5013279;28;20507;-77
2023/04/17 03:06:35;;;;;;;16.55;8.50;;;;;;;;;;4993917;28;20041;-78
2023/04/17 03:09:01;;;;;;;17.85;8.52;;;;;;;;;;4998135;28;20038;-78
2023/04/17 03:11:27;;;;;;;16.33;9.15;;;;;;;;;;4988140;28;20061;-78
2023/04/17 03:13:52;;;;;;;16.52;9.10;;;;;;;;;;5003742;28;20120;-78
2023/04/17 03:16:18;;;;;;;17.65;8.48;;;;;;;;;;4995180;28;20042;-79
2023/04/17 03:18:43;;;;;;;15.60;8.52;;;;;;;;;;4995095;28;20672;-78
2023/04/17 03:21:08;;;;;;;14.73;9.00;;;;;;;;;;5012212;28;20125;-78
2023/04/17 03:23:34;;;;;;;15.20;7.95;;;;;;;;;;5014986;28;20045;-78
2023/04/17 03:25:59;;;;;;;14.10;8.43;;;;;;;;;;4999101;28;20088;-77
2023/04/17 03:28:25;;;;;;;14.50;8.35;;;;;;;;;;4992994;28;20126;-79
2023/04/17 03:30:50;;;;;;;13.75;8.35;;;;;;;;;;4997856;28;20029;-80
2023/04/17 03:33:16;;;;;;;16.58;8.90;;;;;;;;;;4998120;28;20563;-79
2023/04/17 03:35:43;;;;;;;17.90;9.10;;;;;;;;;;4999885;28;20087;-78
2023/04/17 03:38:09;;;;;;;16.27;8.80;;;;;;;;;;5015451;28;20072;-78
2023/04/17 03:40:35;;;;;;;16.40;8.35;;;;;;;;;;4991056;28;20107;-78
2023/04/17 03:43:00;;;;;;;14.75;8.80;;;;;;;;;;4997973;28;20128;-78
2023/04/17 03:45:26;;;;;;;16.42;8.60;;;;;;;;;;4996886;28;20037;-77
2023/04/17 03:47:51;;;;;;;15.10;8.60;;;;;;;;;;5016733;28;20060;-77
2023/04/17 03:50:16;;;;;;;17.75;8.98;;;;;;;;;;4996451;28;20556;-79
2023/04/17 03:52:42;;;;;;;14.25;7.88;;;;;;;;;;5014960;28;20124;-79
2023/04/17 03:55:08;;;;;;;13.75;8.60;;;;;;;;;;5001495;28;20033;-78
2023/04/17 03:57:34;;;;;;;15.88;9.77;;;;;;;;;;5017657;28;20132;-78
2023/04/17 03:59:59;;;;;;;15.43;8.85;;;;;;;;;;4999620;28;20042;-78
2023/04/17 04:02:24;;;;;;;16.02;8.98;;;;;;;;;;4997379;28;20045;-78
2023/04/17 04:04:50;;;;;;;14.90;9.35;;;;;;;;;;4985006;28;20037;-78
2023/04/17 04:07:15;;;;;;;14.80;8.73;;;;;;;;;;5013279;28;20155;-78
2023/04/17 04:09:41;;;;;;;15.02;9.50;;;;;;;;;;4998991;28;20393;-77
2023/04/17 04:12:07;;;;;;;18.00;9.32;;;;;;;;;;4996636;28;20034;-79
2023/04/17 04:14:33;;;;;;;18.35;9.68;;;;;;;;;;4998388;28;20116;-76
2023/04/17 04:16:58;;;;;;;17.67;9.20;;;;;;;;;;4981781;28;20108;-75
2023/04/17 04:19:24;;;;;;;19.60;9.75;;;;;;;;;;5002565;28;20190;-75
2023/04/17 04:21:49;;;;;;;20.02;9.13;;;;;;;;;;5013380;28;20095;-75
2023/04/17 04:24:15;;;;;;;18.77;10.05;;;;;;;;;;4996948;28;20116;-74
2023/04/17 04:26:41;;;;;;;19.25;10.35;;;;;;;;;;5014458;28;20068;-74
2023/04/17 04:29:07;;;;;;;18.50;10.25;;;;;;;;;;4995961;28;20042;-74
2023/04/17 04:31:34;;;;;;;19.35;10.70;;;;;;;;;;5012099;28;20034;-78
2023/04/17 04:34:00;;;;;;;18.37;10.43;;;;;;;;;;5012538;28;20068;-77
2023/04/17 04:36:28;;;;;;;20.50;10.07;;;;;;;;;;4994808;28;20045;-78
2023/04/17 04:38:58;;;;;;;18.95;10.20;;;;;;;;;;4981369;28;20042;-78
2023/04/17 04:41:25;;;;;;;18.80;10.10;;;;;;;;;;5011787;28;20041;-79
2023/04/17 04:43:52;;;;;;;19.37;10.20;;;;;;;;;;5014514;28;20065;-79
2023/04/17 04:46:17;;;;;;;21.25;9.98;;;;;;;;;;4990889;28;20038;-77
2023/04/17 04:48:43;;;;;;;18.13;9.73;;;;;;;;;;4995270;28;20053;-77
2023/04/17 04:51:08;;;;;;;20.67;11.02;;;;;;;;;;4996450;28;20499;-77
2023/04/17 04:53:33;;;;;;;18.30;10.02;;;;;;;;;;4995540;28;20034;-76
2023/04/17 04:55:59;;;;;;;17.88;10.38;;;;;;;;;;4995299;28;20033;-76
2023/04/17 04:58:24;;;;;;;17.17;10.35;;;;;;;;;;4995698;28;20046;-77
2023/04/17 05:00:49;;;;;;;19.50;10.05;;;;;;;;;;4999424;28;20054;-77
2023/04/17 05:03:15;;;;;;;20.55;10.85;;;;;;;;;;5014477;28;20116;-76
2023/04/17 05:05:42;;;;;;;17.63;10.25;;;;;;;;;;5013629;28;20029;-76
2023/04/17 05:08:07;;;;;;;19.27;10.27;;;;;;;;;;5005824;28;20034;-77
2023/04/17 05:10:33;;;;;;;20.85;10.65;;;;;;;;;;4986202;28;20037;-80
2023/04/17 05:12:58;;;;;;;20.60;11.10;;;;;;;;;;4997387;28;20041;-79
2023/04/17 05:15:24;;;;;;;18.60;10.25;;;;;;;;;;4998125;28;20042;-80
2023/04/17 05:17:50;;;;;;;19.65;11.00;;;;;;;;;;4979031;28;20057;-79
2023/04/17 05:20:15;;;;;;;20.65;10.63;;;;;;;;;;4984132;28;20485;-80
2023/04/17 05:22:41;;;;;;;22.25;11.35;;;;;;;;;;4996387;28;20068;-80
2023/04/17 05:25:07;;;;;;;18.73;10.82;;;;;;;;;;5013478;28;20408;-79
2023/04/17 05:27:32;;;;;;;21.85;10.57;;;;;;;;;;4997426;28;20041;-76
2023/04/17 05:29:58;;;;;;;21.67;11.05;;;;;;;;;;4982224;28;20045;-77
2023/04/17 05:32:23;;;;;;;18.95;10.20;;;;;;;;;;4989024;28;20389;-77
2023/04/17 05:34:49;;;;;;;20.95;11.50;;;;;;;;;;4994323;28;20493;-77
2023/04/17 05:37:14;;;;;;;21.13;10.93;;;;;;;;;;4982037;28;20037;-76
2023/04/17 05:39:39;;;;;;;23.25;10.90;;;;;;;;;;4998309;28;20033;-78
2023/04/17 05:42:05;;;;;;;20.73;11.55;;;;;;;;;;5012693;28;20033;-77
2023/04/17 05:44:31;;;;;;;21.55;10.95;;;;;;;;;;4996001;28;20367;-77
2023/04/17 05:46:58;;;;;;;23.83;11.85;;;;;;;;;;5000842;28;20034;-77
2023/04/17 05:49:24;;;;;;;;;;;;;;;;;;4995646;28;20493;-76
2023/04/17 05:51:49;;;;;;;17.90;10.45;;;;;;;;;;4991577;28;19961;-77
2023/04/17 05:54:16;;;;;;;19.63;11.30;;;;;;;;;;4997892;28;20038;-77
2023/04/17 05:56:41;;;;;;;18.23;10.85;;;;;;;;;;4974657;28;20033;-77
2023/04/17 05:59:07;;;;;;;19.20;10.60;;;;;;;;;;4992232;28;20042;-79
2023/04/17 06:01:34;;;;;;;20.88;10.98;;;;;;;;;;4993730;28;20037;-77
2023/04/17 06:04:00;;;;;;;19.20;10.75;;;;;;;;;;4995856;28;20034;-79
2023/04/17 06:06:26;;;;;;;23.20;11.68;;;;;;;;;;4965038;28;20406;-77
2023/04/17 06:08:53;;;;;;;20.85;11.88;;;;;;;;;;5013634;28;20045;-77
2023/04/17 06:11:18;;;;;;;20.00;11.70;;;;;;;;;;5012960;28;20041;-79
2023/04/17 06:13:44;;;;;;;19.20;10.57;;;;;;;;;;5014897;28;20268;-77
2023/04/17 06:16:09;;;;;;;20.00;11.10;;;;;;;;;;4997261;28;20037;-78
2023/04/17 06:18:34;;;;;;;20.50;11.00;;;;;;;;;;4980285;28;20033;-78
2023/04/17 06:21:01;;;;;;;21.73;11.63;;;;;;;;;;5009610;28;20530;-78
2023/04/17 06:23:26;;;;;;;19.58;11.35;;;;;;;;;;4994870;28;20042;-77
2023/04/17 06:25:52;;;;;;;20.13;12.55;;;;;;;;;;5011230;28;20434;-79
2023/04/17 06:28:17;;;;;;;19.30;10.90;;;;;;;;;;5012109;28;20050;-79
2023/04/17 06:30:42;;;;;;;19.23;11.57;;;;;;;;;;4994719;28;20081;-77
2023/04/17 06:33:08;;;;;;;19.40;10.85;;;;;;;;;;4995160;28;20037;-77
2023/04/17 06:35:34;;;;;;;19.83;11.10;;;;;;;;;;4995826;28;20042;-76
2023/04/17 06:37:59;;;;;;;20.92;11.55;;;;;;;;;;4981529;28;20091;-76
2023/04/17 06:40:25;;;;;;;20.75;11.00;;;;;;;;;;4995004;28;20045;-76
2023/04/17 06:42:50;;;;;;;21.63;11.57;;;;;;;;;;4998971;28;20066;-77
2023/04/17 06:45:15;;;;;;;22.58;11.40;;;;;;;;;;4994935;28;20034;-77
2023/04/17 06:47:41;;;;;;;20.58;11.13;;;;;;;;;;4987685;28;20509;-76
2023/04/17 06:50:08;;;;;;;19.27;10.90;;;;;;;;;;4980411;28;20038;-77
2023/04/17 06:52:33;;;;;;;21.65;11.82;;;;;;;;;;5012901;28;20037;-77
2023/04/17 06:54:58;;;;;;;21.85;12.10;;;;;;;;;;4994916;28;20119;-77
2023/04/17 06:57:24;;;;;;;20.52;11.68;;;;;;;;;;4991441;28;20041;-76
2023/04/17 06:59:49;;;;;;;19.67;11.20;;;;;;;;;;4977160;28;20385;-77
2023/04/17 07:02:15;;;;;;;18.98;10.98;;;;;;;;;;4992562;28;20029;-77
2023/04/17 07:04:40;;;;;;;17.02;10.82;;;;;;;;;;4978947;28;20446;-76
2023/04/17 07:07:06;;;;;;;18.00;10.68;;;;;;;;;;4987559;28;20045;-77
2023/04/17 07:09:31;;;;;;;18.27;11.38;;;;;;;;;;5011251;28;20037;-76
2023/04/17 07:11:57;;;;;;;21.02;11.60;;;;;;;;;;4993788;28;20038;-77
2023/04/17 07:14:22;;;;;;;17.73;10.60;;;;;;;;;;4994566;28;20515;-77
2023/04/17 07:16:47;;;;;;;21.00;10.77;;;;;;;;;;5011754;28;20040;-76
2023/04/17 07:19:13;;;;;;;20.65;10.20;;;;;;;;;;4999671;28;20128;-77
2023/04/17 07:21:38;;;;;;;17.98;10.45;;;;;;;;;;4985565;28;20037;-77
2023/04/17 07:24:04;;;;;;;19.10;11.07;;;;;;;;;;5011740;28;20447;-77
2023/04/17 07:26:30;;;;;;;20.15;11.05;;;;;;;;;;5013297;28;20042;-76
2023/04/17 07:28:56;;;;;;;18.70;10.68;;;;;;;;;;4994941;28;20060;-77
2023/04/17 07:31:21;;;;;;;19.10;10.38;;;;;;;;;;4995131;28;21096;-78
2023/04/17 07:33:46;;;;;;;18.35;11.13;;;;;;;;;;4991419;28;20037;-78
2023/04/17 07:36:12;;;;;;;21.10;11.68;;;;;;;;;;4994003;28;20039;-77
2023/04/17 07:38:37;;;;;;;22.58;11.60;;;;;;;;;;5013769;28;20049;-77
2023/04/17 07:41:03;;;;;;;20.48;11.77;;;;;;;;;;5012801;28;20030;-77
2023/04/17 07:43:29;;;;;;;21.38;11.35;;;;;;;;;;4995261;28;20037;-77
2023/04/17 07:45:54;;;;;;;20.90;11.00;;;;;;;;;;4994729;28;20099;-76
2023/04/17 07:48:21;;;;;;;18.65;10.45;;;;;;;;;;4993086;28;20125;-76
2023/04/17 07:50:47;;;;;;;19.85;11.13;;;;;;;;;;4996398;28;20029;-78
2023/04/17 07:53:13;;;;;;;19.27;11.25;;;;;;;;;;4994331;28;20025;-77
2023/04/17 07:55:38;;;;;;;22.33;10.60;;;;;;;;;;5010232;28;20044;-77
2023/04/17 07:58:05;;;;;;;20.27;11.18;;;;;;;;;;4998747;28;20088;-77
2023/04/17 08:00:31;;;;;;;20.48;10.90;;;;;;;;;;5010007;28;20041;-77
2023/04/17 08:02:57;;;;;;;21.17;11.23;;;;;;;;;;4986739;28;20036;-76
2023/04/17 08:05:22;;;;;;;14.77;9.57;;;;;;;;;;4994808;28;20448;-78
2023/04/17 08:07:48;;;;;;;18.33;10.38;;;;;;;;;;4976065;28;20045;-77
2023/04/17 08:10:13;;;;;;;20.15;10.45;;;;;;;;;;5014452;28;20029;-77
2023/04/17 08:12:39;;;;;;;18.70;10.85;;;;;;;;;;5006345;28;20029;-77
2023/04/17 08:15:05;;;;;;;19.83;10.43;;;;;;;;;;4999000;28;20044;-77
2023/04/17 08:17:31;;;;;;;18.00;10.63;;;;;;;;;;4982260;28;20037;-76
2023/04/17 08:19:57;;;;;;;19.10;10.57;;;;;;;;;;5015157;28;20043;-77
2023/04/17 08:22:23;;;;;;;17.17;9.77;;;;;;;;;;5014615;28;20034;-77
2023/04/17 08:24:49;;;;;;;17.60;10.18;;;;;;;;;;5001821;28;20065;-77
2023/04/17 08:27:15;;;;;;;26.67;11.45;;;;;;;;;;4994303;28;20034;-76
2023/04/17 08:29:42;;;;;;;18.15;10.25;;;;;;;;;;4983893;28;20512;-77
2023/04/17 08:32:07;;;;;;;19.73;10.77;;;;;;;;;;4994785;28;20630;-77
2023/04/17 08:34:34;;;;;;;18.50;10.60;;;;;;;;;;4983428;28;20132;-77
2023/04/17 08:37:00;;;;;;;19.15;10.43;;;;;;;;;;4983482;28;20030;-77
2023/04/17 08:39:26;;;;;;;18.75;10.20;;;;;;;;;;5005156;28;20026;-77
2023/04/17 08:41:57;;;;;;;17.20;10.13;;;;;;;;;;4996123;28;20093;-79
2023/04/17 08:44:22;;;;;;;17.33;9.93;;;;;;;;;;4997403;28;20061;-77
2023/04/17 08:46:48;;;;;;;18.27;10.75;;;;;;;;;;4992968;28;20505;-78
2023/04/17 08:49:14;;;;;;;17.08;10.35;;;;;;;;;;4995767;28;20034;-77
2023/04/17 08:51:41;;;;;;;17.63;10.00;;;;;;;;;;4995955;28;20034;-77
2023/04/17 08:54:27;;;;;;;17.33;10.25;;;;;;;;;;5014279;28;20186;-77
2023/04/17 08:56:52;;;;;;;16.98;9.38;;;;;;;;;;4905840;29;20488;-77
2023/04/17 08:59:17;;;;;;;14.38;8.60;;;;;;;;;;4920402;29;20087;-78
2023/04/17 09:02:05;;;;;;;13.98;8.95;;;;;;;;;;4902058;29;20036;-77
2023/04/17 09:04:41;;;;;;;19.42;11.43;;;;;;;;;;4903037;29;20061;-78
2023/04/17 09:07:11;;;;;;;26.65;14.07;;;;;;;;;;4920501;29;20051;-78
2023/04/17 09:09:48;;;;;;;15.93;9.50;;;;;;;;;;4903038;29;20052;-77
2023/04/17 09:12:14;;;;;;;17.48;9.00;;;;;;;;;;4900772;29;20436;-77
2023/04/17 09:14:40;;;;;;;15.40;9.82;;;;;;;;;;4920644;29;20036;-78
2023/04/17 09:17:06;;;;;;;17.67;9.48;;;;;;;;;;4917814;29;20036;-78
2023/04/17 09:19:32;;;;;;;16.90;9.50;;;;;;;;;;4917865;29;20040;-75
2023/04/17 09:22:16;;;;;;;17.02;9.32;;;;;;;;;;4919359;29;20063;-77
2023/04/17 09:24:46;;;;;;;16.00;8.98;;;;;;;;;;4909216;29;20508;-79
2023/04/17 09:27:21;;;;;;;16.15;9.27;;;;;;;;;;4911566;29;20579;-77
2023/04/17 09:29:58;;;;;;;17.42;9.88;;;;;;;;;;4911373;29;20126;-79
2023/04/17 09:32:25;;;;;;;19.20;10.45;;;;;;;;;;4915366;29;20106;-76
2023/04/17 09:34:52;;;;;;;14.32;9.25;;;;;;;;;;4983413;28;20038;-77
2023/04/17 09:37:17;;;;;;;15.68;8.82;;;;;;;;;;5000911;28;20057;-78
2023/04/17 09:39:59;;;;;;;14.77;9.10;;;;;;;;;;4989402;28;20034;-76
2023/04/17 09:42:26;;;;;;;15.85;9.40;;;;;;;;;;4988179;28;20448;-76
2023/04/17 09:44:52;;;;;;;15.55;9.55;;;;;;;;;;4976212;28;20505;-76
2023/04/17 09:47:17;;;;;;;14.27;9.00;;;;;;;;;;4994171;28;20050;-79
2023/04/17 09:49:49;;;;;;;11.88;7.93;;;;;;;;;;4996426;28;20033;-76
2023/04/17 09:52:22;;;;;;;14.27;8.10;;;;;;;;;;4996899;28;20041;-76
2023/04/17 09:54:50;;;;;;;13.07;8.48;;;;;;;;;;4988275;28;20060;-77
2023/04/17 09:57:16;;;;;;;17.55;8.20;;;;;;;;;;4995944;28;20033;-76
2023/04/17 09:59:49;;;;;;;12.57;8.75;;;;;;;;;;4997222;28;20034;-77
2023/04/17 10:02:16;;;;;;;12.75;7.85;;;;;;;;;;4996729;28;20033;-76
2023/04/17 10:04:42;;;;;;;;;;;;;;;;;;4997283;28;20034;-76
2023/04/17 10:07:07;;;;;;;12.63;7.60;;;;;;;;;;5011782;28;19917;-76
2023/04/17 10:09:33;;;;;;;13.52;7.72;;;;;;;;;;4998957;28;20413;-76
2023/04/17 10:12:03;;;;;;;16.42;9.75;;;;;;;;;;4980372;28;20069;-77
2023/04/17 10:14:34;;;;;;;11.95;7.80;;;;;;;;;;5011321;28;20124;-76
2023/04/17 10:17:33;;;;;;;11.40;6.97;;;;;;;;;;4979891;28;20510;-76
2023/04/17 10:20:31;;;;;;;13.18;6.93;;;;;;;;;;5014261;28;20030;-76
2023/04/17 10:22:57;;;;;;;18.48;10.70;;;;;;;;;;4945224;28;20042;-76
2023/04/17 10:25:29;;;;;;;10.90;7.03;;;;;;;;;;4992028;28;20053;-76
2023/04/17 10:27:57;;;;;;;12.23;7.60;;;;;;;;;;4977251;28;20525;-76
2023/04/17 10:30:25;;;;;;;11.90;7.80;;;;;;;;;;4994878;28;20042;-76
2023/04/17 10:33:12;;;;;;;13.00;7.40;;;;;;;;;;4987965;28;20092;-78
2023/04/17 10:35:37;;;;;;;13.00;7.10;;;;;;;;;;4997642;28;20037;-76
2023/04/17 10:38:05;;;;;;;11.27;6.53;;;;;;;;;;4987346;28;20397;-76
2023/04/17 10:40:32;;;;;;;9.98;6.40;;;;;;;;;;5012453;28;20037;-76
2023/04/17 10:43:13;;;;;;;10.77;6.85;;;;;;;;;;4987746;28;20527;-76
2023/04/17 10:45:59;;;;;;;9.68;6.38;;;;;;;;;;5010778;28;20045;-76
2023/04/17 10:48:31;;;;;;;9.40;6.18;;;;;;;;;;4976302;28;20729;-76
2023/04/17 10:50:57;;;;;;;10.82;6.05;;;;;;;;;;5014659;28;20037;-77
2023/04/17 10:53:43;;;;;;;9.60;6.28;;;;;;;;;;4996205;28;20033;-76
2023/04/17 10:56:10;;;;;;;9.15;6.20;;;;;;;;;;4994500;28;20578;-76
2023/04/17 10:58:57;;;;;;;10.23;5.80;;;;;;;;;;4993981;28;20038;-76
2023/04/17 11:01:25;;;;;;;8.98;6.00;;;;;;;;;;4996224;28;20041;-78
2023/04/17 11:03:50;;;;;;;;;;;;;;;;;;4996845;28;20033;-78
2023/04/17 11:06:15;;;;;;;9.05;5.45;;;;;;;;;;4987711;28;19914;-76
2023/04/17 11:08:41;;;;;;;11.90;6.65;;;;;;;;;;4979097;28;20156;-77
2023/04/17 11:11:10;;;;;;;11.93;6.32;;;;;;;;;;5010798;28;20045;-76
2023/04/17 11:13:36;;;;;;;12.73;7.20;;;;;;;;;;5014788;28;20405;-76
2023/04/17 11:16:03;;;;;;;9.25;6.10;;;;;;;;;;5012294;28;20030;-77
2023/04/17 11:18:28;;;;;;;11.85;6.32;;;;;;;;;;5013913;28;20069;-77
2023/04/17 11:20:53;;;;;;;12.73;6.68;;;;;;;;;;5011813;28;20065;-77
2023/04/17 11:23:19;;;;;;;9.45;5.93;;;;;;;;;;4987275;28;20037;-76
2023/04/17 11:25:46;;;;;;;10.70;6.68;;;;;;;;;;5012375;28;20041;-76
2023/04/17 11:28:11;;;;;;;11.52;6.60;;;;;;;;;;4992226;28;20038;-77
2023/04/17 11:30:43;;;;;;;8.75;5.68;;;;;;;;;;5011397;28;20874;-78
2023/04/17 11:33:09;;;;;;;9.40;6.03;;;;;;;;;;5008923;28;20050;-77
2023/04/17 11:35:37;;;;;;;11.60;6.43;;;;;;;;;;4994229;28;20057;-77
2023/04/17 11:38:19;;;;;;;9.48;6.40;;;;;;;;;;4997860;28;20433;-77
2023/04/17 11:40:52;;;;;;;8.70;5.55;;;;;;;;;;5013637;28;20029;-76
2023/04/17 11:43:19;;;;;;;9.40;5.88;;;;;;;;;;4996129;28;20045;-77
2023/04/17 11:45:46;;;;;;;9.17;5.77;;;;;;;;;;5002482;28;20045;-77
2023/04/17 11:48:13;;;;;;;8.52;5.63;;;;;;;;;;5013853;28;20773;-76
2023/04/17 11:50:43;;;;;;;11.10;6.05;;;;;;;;;;5016598;28;20034;-77
2023/04/17 11:53:12;;;;;;;9.00;5.97;;;;;;;;;;5002029;28;20034;-77
2023/04/17 11:55:37;;;;;;;12.23;7.20;;;;;;;;;;5014434;28;20151;-76
2023/04/17 11:58:05;;;;;;;12.10;6.72;;;;;;;;;;5015912;28;20505;-76
2023/04/17 12:00:31;;;;;;;13.25;7.18;;;;;;;;;;5015755;28;20172;-76
2023/04/17 12:03:01;;;;;;;13.23;6.72;;;;;;;;;;5015057;28;20200;-79
2023/04/17 12:05:28;;;;;;;11.02;6.80;;;;;;;;;;4995142;28;20524;-77
2023/04/17 12:08:01;;;;;;;12.00;6.80;;;;;;;;;;5015658;28;20041;-76
2023/04/17 12:10:41;;;;;;;13.68;7.20;;;;;;;;;;5015676;28;20037;-76
2023/04/17 12:13:07;;;;;;;12.75;7.15;;;;;;;;;;4983618;28;20574;-76
2023/04/17 12:15:34;;;;;;;10.60;7.15;;;;;;;;;;4990131;28;20466;-76
2023/04/17 12:18:04;;;;;;;10.85;6.57;;;;;;;;;;5014141;28;20038;-76
2023/04/17 12:20:33;;;;;;;12.63;7.38;;;;;;;;;;4996774;28;20083;-77
2023/04/17 12:22:58;;;;;;;14.00;7.78;;;;;;;;;;5013928;28;20057;-77
2023/04/17 12:25:24;;;;;;;12.30;6.97;;;;;;;;;;4987128;28;20073;-77
2023/04/17 12:27:49;;;;;;;9.75;6.72;;;;;;;;;;5015692;28;20030;-78
2023/04/17 12:30:15;;;;;;;11.43;6.78;;;;;;;;;;4999739;28;20029;-78
2023/04/17 12:32:41;;;;;;;11.82;6.93;;;;;;;;;;5011752;28;20037;-78
2023/04/17 12:35:07;;;;;;;13.93;7.43;;;;;;;;;;5013552;28;20909;-79
2023/04/17 12:37:32;;;;;;;12.63;7.65;;;;;;;;;;5005734;28;20045;-77
2023/04/17 12:39:58;;;;;;;13.48;7.55;;;;;;;;;;4989282;28;20065;-77
2023/04/17 12:42:23;;;;;;;11.68;7.03;;;;;;;;;;4996762;28;20069;-77
2023/04/17 12:44:49;;;;;;;11.43;7.22;;;;;;;;;;4996820;28;20073;-78
2023/04/17 12:47:15;;;;;;;12.88;7.07;;;;;;;;;;4997882;28;20033;-77
2023/04/17 12:49:40;;;;;;;11.38;6.97;;;;;;;;;;5000517;28;20088;-78
2023/04/17 12:52:06;;;;;;;12.85;7.47;;;;;;;;;;5012779;28;20147;-78
2023/04/17 12:54:31;;;;;;;14.07;7.95;;;;;;;;;;4997144;28;20074;-79
2023/04/17 12:56:57;;;;;;;14.73;7.25;;;;;;;;;;4997929;28;20485;-79
2023/04/17 12:59:22;;;;;;;13.20;7.18;;;;;;;;;;5014781;28;20037;-78
2023/04/17 13:01:48;;;;;;;11.30;6.95;;;;;;;;;;4994866;28;20030;-79
2023/04/17 13:04:13;;;;;;;11.02;6.75;;;;;;;;;;5013071;28;20120;-77
2023/04/17 13:06:38;;;;;;;11.52;7.13;;;;;;;;;;4982918;28;20436;-77
2023/04/17 13:09:04;;;;;;;14.05;7.72;;;;;;;;;;4998099;28;20076;-78
2023/04/17 13:11:29;;;;;;;12.38;7.45;;;;;;;;;;4996527;28;20030;-77
2023/04/17 13:13:54;;;;;;;11.70;7.28;;;;;;;;;;4988625;28;20037;-77
2023/04/17 13:16:20;;;;;;;13.25;7.32;;;;;;;;;;4993823;28;20030;-78
2023/04/17 13:18:45;;;;;;;11.10;6.45;;;;;;;;;;4999286;28;20057;-78
2023/04/17 13:21:10;;;;;;;9.80;6.40;;;;;;;;;;4993538;28;20029;-78
2023/04/17 13:23:36;;;;;;;9.88;6.05;;;;;;;;;;5014547;28;20057;-78
2023/04/17 13:26:01;;;;;;;10.30;5.63;;;;;;;;;;4981332;28;20030;-77
2023/04/17 13:28:27;;;;;;;11.90;6.47;;;;;;;;;;5007769;28;20042;-77
2023/04/17 13:30:52;;;;;;;10.77;6.18;;;;;;;;;;4996005;28;20034;-79
2023/04/17 13:33:18;;;;;;;10.63;6.30;;;;;;;;;;5013412;28;20041;-79
2023/04/17 13:35:43;;;;;;;12.50;6.47;;;;;;;;;;5013083;28;20095;-78
2023/04/17 13:38:08;;;;;;;10.30;6.20;;;;;;;;;;4979551;28;20498;-78
2023/04/17 13:40:35;;;;;;;11.95;6.85;;;;;;;;;;4994211;28;20044;-78
2023/04/17 13:43:00;;;;;;;15.02;7.10;;;;;;;;;;4978945;28;20053;-78
2023/04/17 13:45:25;;;;;;;12.70;7.00;;;;;;;;;;4995356;28;20062;-77
2023/04/17 13:47:51;;;;;;;12.52;7.22;;;;;;;;;;5006081;28;20494;-79
2023/04/17 13:50:16;;;;;;;14.25;7.32;;;;;;;;;;4986891;28;20045;-79
2023/04/17 13:52:42;;;;;;;13.35;7.97;;;;;;;;;;4983035;28;20446;-78
2023/04/17 13:55:10;;;;;;;11.63;6.90;;;;;;;;;;4999708;28;20492;-79
2023/04/17 13:57:36;;;;;;;13.88;7.90;;;;;;;;;;4998204;28;20493;-79
2023/04/17 14:00:02;;;;;;;13.38;8.02;;;;;;;;;;5013015;28;20103;-77
2023/04/17 14:02:27;;;;;;;14.80;7.75;;;;;;;;;;5009377;28;20041;-78
2023/04/17 14:04:52;;;;;;;13.18;7.82;;;;;;;;;;4996123;28;20033;-78
2023/04/17 14:07:18;;;;;;;14.02;8.52;;;;;;;;;;4997265;28;20105;-79
2023/04/17 14:09:43;;;;;;;13.18;8.40;;;;;;;;;;5012838;28;20377;-79
2023/04/17 14:12:09;;;;;;;16.48;9.52;;;;;;;;;;4994366;28;20045;-78
2023/04/17 14:14:34;;;;;;;18.60;9.52;;;;;;;;;;5012394;28;20044;-79
2023/04/17 14:17:00;;;;;;;15.85;9.80;;;;;;;;;;4996772;28;20033;-78
2023/04/17 14:19:25;;;;;;;16.80;9.43;;;;;;;;;;4969961;28;20037;-78
2023/04/17 14:21:50;;;;;;;16.52;9.82;;;;;;;;;;4998682;28;20510;-79
2023/04/17 14:24:16;;;;;;;18.02;10.38;;;;;;;;;;5015329;28;20053;-79
2023/04/17 14:26:41;;;;;;;16.40;9.52;;;;;;;;;;5010645;28;20512;-78